Burley Municipal Airport
KBYI : now visible

Airfield :











YOU CAN JOIN US ON...

 
LOGIN :

Register | Disclaimer

   EN    FR    IT 

 









Legend :    VFR   Marginal VFR   IFR   Intensive IFR   Very Intensive IFR
Visi :
Ceiling :
>= 8 km
>= 3000ft
5 to 8 km
1000 to 3000 ft
1500m to 5 km
500 to 1000 ft
800 to 1500m
200 to 500 ft
< 800m
< 200 ft
Symbols :   Thunderstorms  Fog  Heavy snow  Heavy precipitations  Wind > 20 kt






- Airport Elevation : 4150 ft


KBYI - Burley Municipal

CURRENT METAR :
  • 150514Z AUTO 32006KT 10SM -RA FEW005 BKN010 OVC018 02/01 A2996 RMK AO2 CIG 007V014 P0001 T00220006

EXPIRED METARs :
  • 150453Z AUTO 31006KT 9SM -RA BKN018 OVC024 02/01 A2995 RMK AO2 SLP152 P0001 T00220006
  • 150404Z AUTO 34008KT 10SM -RA BKN018 OVC027 02/00 A2996 RMK AO2 P0000 T00220000
  • 150353Z AUTO 35009KT 9SM -RA BKN014 OVC023 02/00 A2996 RMK AO2 RAB37SNE37 SLP153 P0005 T00220000
  • 150341Z AUTO 35007KT 7SM -RA FEW006 OVC014 02/00 A2996 RMK AO2 RAB37SNE37 P0004 T00170000
  • 150328Z AUTO 36006KT 4SM -SN BR FEW005 BKN013 OVC020 02/00 A2996 RMK AO2 P0003 T00170000
  • 150251Z AUTO 36008KT 2SM -SN BR FEW006 SCT010 OVC017 01/00 A2994 RMK AO2 SLP149 P0005 60013 T00110000 52007

TAF KBYI
Valid from the 15 at 01:00 until the 16 at 00:00 UTC


150056Z 1501/1524 03012KT 6SM -RASN BKN012 OVC020
FM150500 VRB05KT 6SM -RASN SCT010 OVC020
FM150900 VRB06KT 5SM -SN BR SCT007 OVC010
FM151700 05009KT P6SM SCT015 OVC020
FM151900 02008KT P6SM SCT030 BKN040
KZLC FIR / North America



MET'MAP, your aeronautical weather chart ! - Copyright ORBIFLY December 2007 - Disclaimer

ORBIFLY MET'MAP TEAM :

Programming & Development : Alexandra Zaïnal
Concept & original design : Baudouin d'Aumeries
Assistance for programming : Marc-Olivier Méhu
Technical & hardware support : Manuel Goepfert

Contact : metmap@orbifly.com




SOURCES & CREDITS :

   NOAA       Earth
Advisory